Time,TemperatureF,DewpointF,PressureIn,WindDirection,WindDirectionDegrees,WindSpeedMPH,WindSpeedGustMPH,Humidity,HourlyPrecipIn,Conditions,Clouds,dailyrainin,SoftwareType,DateUTC
2014-04-17 00:01:00,46.7,24.7,30.02,North,6,7.0,10.9,42,0.00,,,0.00,VWS V14.01,2014-04-17 06:01:00,
2014-04-17 00:07:00,46.6,24.8,30.02,NE,53,6.9,7.0,42,0.00,,,0.00,VWS V14.01,2014-04-17 06:07:00,
2014-04-17 00:13:00,46.1,24.4,30.02,NE,42,10.4,11.1,42,0.00,,,0.00,VWS V14.01,2014-04-17 06:13:00,
2014-04-17 00:18:00,45.7,24.5,30.02,NE,56,6.9,8.4,43,0.00,,,0.00,VWS V14.01,2014-04-17 06:18:00,
2014-04-17 00:23:00,45.6,24.4,30.02,North,359,7.5,10.3,43,0.00,,,0.00,VWS V14.01,2014-04-17 06:23:00,
2014-04-17 00:28:00,45.7,24.3,30.03,NNW,330,0.0,0.0,43,0.00,,,0.00,VWS V14.01,2014-04-17 06:28:00,
2014-04-17 00:34:00,45.8,24.4,30.02,NNW,330,0.0,0.0,43,0.00,,,0.00,VWS V14.01,2014-04-17 06:34:00,
2014-04-17 00:39:00,45.9,24.5,30.03,NNW,330,0.0,0.0,43,0.00,,,0.00,VWS V14.01,2014-04-17 06:39:00,
2014-04-17 00:45:00,46.0,24.7,30.03,NNW,330,0.0,0.0,43,0.00,,,0.00,VWS V14.01,2014-04-17 06:45:00,
2014-04-17 00:50:00,45.9,25.0,30.03,NNW,330,0.0,0.0,44,0.00,,,0.00,VWS V14.01,2014-04-17 06:50:00,
2014-04-17 00:55:00,45.8,25.2,30.03,NNW,330,0.0,0.0,44,0.00,,,0.00,VWS V14.01,2014-04-17 06:55:00,
2014-04-17 01:00:00,45.7,25.4,30.04,NNW,330,0.0,0.0,45,0.00,,,0.00,VWS V14.01,2014-04-17 07:00:00,
2014-04-17 01:05:00,45.5,25.2,30.04,NNW,330,0.0,0.0,45,0.00,,,0.00,VWS V14.01,2014-04-17 07:05:00,
2014-04-17 01:10:00,45.1,24.7,30.03,NNW,330,0.0,0.0,44,0.00,,,0.00,VWS V14.01,2014-04-17 07:10:00,
2014-04-17 01:15:00,44.9,24.5,30.03,NNW,330,0.0,0.0,44,0.00,,,0.00,VWS V14.01,2014-04-17 07:15:00,
2014-04-17 01:21:00,44.9,24.5,30.03,NNW,330,0.0,0.0,44,0.00,,,0.00,VWS V14.01,2014-04-17 07:21:00,
2014-04-17 01:26:00,45.0,25.5,30.03,NNW,330,0.0,0.0,46,0.00,,,0.00,VWS V14.01,2014-04-17 07:26:00,
2014-04-17 01:31:00,45.3,25.5,30.03,NNW,330,0.0,3.4,46,0.00,,,0.00,VWS V14.01,2014-04-17 07:31:00,
2014-04-17 01:36:00,45.3,25.3,30.03,NNW,330,0.0,0.0,45,0.00,,,0.00,VWS V14.01,2014-04-17 07:36:00,
2014-04-17 01:41:00,45.2,24.9,30.02,NNW,330,0.0,0.0,45,0.00,,,0.00,VWS V14.01,2014-04-17 07:41:00,
2014-04-17 01:46:00,45.1,24.9,30.02,North,4,0.0,9.6,45,0.00,,,0.00,VWS V14.01,2014-04-17 07:46:00,
2014-04-17 01:51:00,45.0,24.9,30.02,NNE,13,0.0,6.0,45,0.00,,,0.00,VWS V14.01,2014-04-17 07:51:00,
2014-04-17 01:56:00,44.9,24.8,30.02,NE,41,10.4,10.4,45,0.00,,,0.00,VWS V14.01,2014-04-17 07:56:00,
2014-04-17 02:01:00,44.7,24.7,30.02,NNE,22,7.3,9.7,45,0.00,,,0.00,VWS V14.01,2014-04-17 08:01:00,
2014-04-17 02:06:00,44.7,24.8,30.02,NNE,27,7.1,10.3,45,0.00,,,0.00,VWS V14.01,2014-04-17 08:06:00,
2014-04-17 02:11:00,44.7,24.8,30.02,NNE,14,8.6,11.5,45,0.00,,,0.00,VWS V14.01,2014-04-17 08:11:00,
2014-04-17 02:16:00,44.6,24.8,30.02,NNE,15,3.2,8.2,45,0.00,,,0.00,VWS V14.01,2014-04-17 08:16:00,
2014-04-17 02:21:00,44.9,25.0,30.02,North,0,0.0,0.0,45,0.00,,,0.00,VWS V14.01,2014-04-17 08:21:00,
2014-04-17 02:26:00,44.8,24.9,30.02,North,0,0.0,0.0,45,0.00,,,0.00,VWS V14.01,2014-04-17 08:26:00,
2014-04-17 02:31:00,44.7,25.1,30.03,North,0,0.0,0.0,46,0.00,,,0.00,VWS V14.01,2014-04-17 08:31:00,